Time;durP1;ratioP1;P1;durP2;ratioP2;P2;SDS_P1;SDS_P2;PMS_P1;PMS_P2;Temp;Humidity;BMP_temperature;BMP_pressure;BME280_temperature;BME280_humidity;BME280_pressure;Samples;Min_cycle;Max_cycle;Signal;HPM_P1;HPM_P2
2020/12/23 00:00:10;;;;;;;3.93;2.73;;;;;;;;;;5036267;28;20283;-61
2020/12/23 00:02:35;;;;;;;7.37;3.13;;;;;;;;;;5035509;28;20242;-61
2020/12/23 00:05:01;;;;;;;6.63;2.73;;;;;;;;;;5036143;28;20543;-60
2020/12/23 00:07:27;;;;;;;9.00;3.67;;;;;;;;;;5034935;28;20206;-60
2020/12/23 00:09:52;;;;;;;15.07;3.20;;;;;;;;;;5035674;28;20542;-61
2020/12/23 00:12:17;;;;;;;9.30;3.80;;;;;;;;;;5035917;28;20243;-61
2020/12/23 00:14:42;;;;;;;9.47;3.73;;;;;;;;;;5035790;28;20217;-61
2020/12/23 00:17:08;;;;;;;8.53;3.20;;;;;;;;;;5035631;28;20309;-60
2020/12/23 00:19:33;;;;;;;7.33;3.23;;;;;;;;;;5035424;28;20234;-60
2020/12/23 00:21:59;;;;;;;9.70;4.50;;;;;;;;;;5035385;28;20304;-60
2020/12/23 00:24:24;;;;;;;8.07;3.73;;;;;;;;;;5034380;28;20599;-60
2020/12/23 00:26:50;;;;;;;8.50;3.70;;;;;;;;;;5035827;28;20456;-61
2020/12/23 00:29:15;;;;;;;5.53;2.70;;;;;;;;;;5035679;28;20320;-60
2020/12/23 00:31:40;;;;;;;12.67;3.87;;;;;;;;;;5035261;28;20231;-60
2020/12/23 00:34:05;;;;;;;11.93;3.00;;;;;;;;;;5035944;28;20653;-61
2020/12/23 00:36:31;;;;;;;7.33;2.83;;;;;;;;;;5035039;28;20307;-60
2020/12/23 00:38:56;;;;;;;8.53;3.30;;;;;;;;;;5034495;28;20296;-60
2020/12/23 00:41:22;;;;;;;11.23;4.30;;;;;;;;;;5035774;28;20623;-61
2020/12/23 00:43:47;;;;;;;10.73;3.47;;;;;;;;;;5035569;28;20210;-60
2020/12/23 00:46:13;;;;;;;11.07;3.13;;;;;;;;;;5035893;28;20735;-61
2020/12/23 00:48:39;;;;;;;9.27;3.10;;;;;;;;;;5034172;28;20300;-60
2020/12/23 00:51:12;;;;;;;5.00;2.77;;;;;;;;;;5035396;28;20442;-61
2020/12/23 00:53:41;;;;;;;5.40;2.67;;;;;;;;;;5035208;28;20458;-61
2020/12/23 00:56:07;;;;;;;8.20;3.00;;;;;;;;;;5035476;28;20443;-60
2020/12/23 00:58:32;;;;;;;9.30;2.20;;;;;;;;;;5035430;28;20434;-61
2020/12/23 01:00:58;;;;;;;13.27;3.40;;;;;;;;;;5035905;28;20639;-61
2020/12/23 01:03:23;;;;;;;12.97;3.97;;;;;;;;;;5035556;28;20233;-61
2020/12/23 01:05:48;;;;;;;6.40;2.57;;;;;;;;;;5033942;28;20556;-60
2020/12/23 01:08:14;;;;;;;8.50;2.30;;;;;;;;;;5035431;28;20266;-61
2020/12/23 01:10:40;;;;;;;9.10;2.87;;;;;;;;;;5035072;28;20601;-61
2020/12/23 01:13:05;;;;;;;11.67;3.17;;;;;;;;;;5035534;28;20263;-60
2020/12/23 01:15:30;;;;;;;9.30;3.10;;;;;;;;;;5035494;28;20246;-61
2020/12/23 01:17:55;;;;;;;9.27;2.33;;;;;;;;;;5035680;28;20270;-61
2020/12/23 01:20:21;;;;;;;8.63;2.60;;;;;;;;;;5035627;28;20724;-61
2020/12/23 01:22:46;;;;;;;11.40;2.47;;;;;;;;;;5034571;28;20233;-61
2020/12/23 01:25:12;;;;;;;6.20;2.80;;;;;;;;;;5035282;28;20299;-61
2020/12/23 01:27:37;;;;;;;7.50;2.73;;;;;;;;;;5035001;28;20610;-61
2020/12/23 01:30:03;;;;;;;7.40;2.37;;;;;;;;;;5035206;28;20332;-61
2020/12/23 01:32:29;;;;;;;8.43;2.50;;;;;;;;;;5034485;28;20221;-60
2020/12/23 01:34:54;;;;;;;7.00;2.77;;;;;;;;;;5035173;28;20466;-60
2020/12/23 01:37:19;;;;;;;13.40;3.00;;;;;;;;;;5035031;28;20222;-60
2020/12/23 01:39:44;;;;;;;6.20;2.77;;;;;;;;;;5034747;28;20213;-61
2020/12/23 01:42:10;;;;;;;7.93;2.83;;;;;;;;;;5034882;28;20359;-60
2020/12/23 01:44:38;;;;;;;8.70;3.60;;;;;;;;;;5034819;28;20663;-61
2020/12/23 01:47:16;;;;;;;11.27;3.27;;;;;;;;;;5035424;28;20221;-60
2020/12/23 01:49:41;;;;;;;5.47;2.33;;;;;;;;;;5035017;28;20729;-60
2020/12/23 01:52:06;;;;;;;10.37;3.50;;;;;;;;;;5035337;28;20441;-61
2020/12/23 01:54:32;;;;;;;9.13;2.70;;;;;;;;;;5034803;28;20223;-61
2020/12/23 01:56:58;;;;;;;7.60;3.10;;;;;;;;;;5035321;28;20310;-61
2020/12/23 01:59:24;;;;;;;12.00;4.23;;;;;;;;;;5017802;28;20462;-60
2020/12/23 02:01:56;;;;;;;7.13;2.40;;;;;;;;;;5035114;28;20234;-60
2020/12/23 02:04:22;;;;;;;6.80;2.50;;;;;;;;;;5034288;28;20438;-60
2020/12/23 02:06:47;;;;;;;7.60;2.50;;;;;;;;;;5035179;28;20491;-61
2020/12/23 02:09:13;;;;;;;7.87;3.40;;;;;;;;;;5038677;28;20224;-60
2020/12/23 02:11:39;;;;;;;6.40;3.07;;;;;;;;;;5038239;28;20612;-60
2020/12/23 02:14:04;;;;;;;18.50;3.20;;;;;;;;;;5037482;28;20543;-60
2020/12/23 02:16:29;;;;;;;15.80;3.57;;;;;;;;;;5038234;28;20586;-60
2020/12/23 02:18:54;;;;;;;8.53;3.17;;;;;;;;;;5038517;28;20300;-60
2020/12/23 02:21:20;;;;;;;11.70;3.47;;;;;;;;;;5038840;28;20240;-60
2020/12/23 02:23:45;;;;;;;6.37;3.60;;;;;;;;;;5036967;28;20305;-61
2020/12/23 02:26:10;;;;;;;6.37;3.07;;;;;;;;;;5020791;28;20236;-60
2020/12/23 02:28:35;;;;;;;7.30;2.57;;;;;;;;;;5037978;28;20217;-60
2020/12/23 02:31:03;;;;;;;9.83;3.10;;;;;;;;;;5038480;28;20645;-60
2020/12/23 02:33:28;;;;;;;6.60;2.87;;;;;;;;;;5038737;28;20259;-60
2020/12/23 02:35:53;;;;;;;8.77;3.50;;;;;;;;;;5038314;28;20484;-60
2020/12/23 02:38:19;;;;;;;11.80;3.83;;;;;;;;;;5038583;28;20230;-60
2020/12/23 02:40:44;;;;;;;6.17;2.90;;;;;;;;;;5037890;28;20727;-60
2020/12/23 02:43:09;;;;;;;6.67;2.60;;;;;;;;;;5038380;28;20657;-60
2020/12/23 02:45:35;;;;;;;4.43;2.20;;;;;;;;;;5036926;28;20213;-60
2020/12/23 02:48:00;;;;;;;8.23;2.70;;;;;;;;;;5038472;28;20720;-60
2020/12/23 02:50:25;;;;;;;8.00;3.53;;;;;;;;;;5037931;28;20232;-60
2020/12/23 02:52:51;;;;;;;7.40;2.20;;;;;;;;;;5037491;28;20722;-61
2020/12/23 02:55:16;;;;;;;9.70;2.80;;;;;;;;;;5037808;28;20242;-60
2020/12/23 02:57:41;;;;;;;9.30;2.43;;;;;;;;;;5037316;28;20767;-61
2020/12/23 03:00:07;;;;;;;8.20;2.90;;;;;;;;;;5037601;28;20217;-60
2020/12/23 03:02:32;;;;;;;8.33;2.67;;;;;;;;;;5037274;28;20560;-60
2020/12/23 03:04:58;;;;;;;7.97;2.40;;;;;;;;;;5037112;28;20220;-60
2020/12/23 03:07:23;;;;;;;6.10;3.27;;;;;;;;;;5037585;28;20520;-60
2020/12/23 03:09:48;;;;;;;9.30;4.10;;;;;;;;;;5036996;28;20229;-60
2020/12/23 03:12:13;;;;;;;12.90;2.77;;;;;;;;;;5037342;28;20300;-60
2020/12/23 03:14:39;;;;;;;11.30;3.07;;;;;;;;;;5036905;28;20215;-61
2020/12/23 03:17:04;;;;;;;9.70;3.60;;;;;;;;;;5037251;28;20613;-60
2020/12/23 03:19:29;;;;;;;10.03;2.77;;;;;;;;;;5037098;28;20216;-60
2020/12/23 03:21:54;;;;;;;9.27;2.30;;;;;;;;;;5036314;28;20293;-60
2020/12/23 03:24:20;;;;;;;9.50;2.93;;;;;;;;;;5036847;28;20221;-61
2020/12/23 03:26:45;;;;;;;9.63;2.60;;;;;;;;;;5036350;28;20293;-60
2020/12/23 03:29:10;;;;;;;11.80;2.67;;;;;;;;;;5036841;28;20237;-60
2020/12/23 03:31:35;;;;;;;5.57;2.43;;;;;;;;;;5035100;28;20721;-60
2020/12/23 03:34:01;;;;;;;7.33;2.80;;;;;;;;;;5036645;28;20213;-60
2020/12/23 03:36:26;;;;;;;6.83;3.37;;;;;;;;;;5036358;28;20627;-60
2020/12/23 03:38:51;;;;;;;5.23;2.80;;;;;;;;;;5036801;28;20296;-60
2020/12/23 03:41:17;;;;;;;6.83;2.43;;;;;;;;;;5036490;28;20677;-60
2020/12/23 03:43:42;;;;;;;7.10;2.83;;;;;;;;;;5035768;28;20221;-60
2020/12/23 03:46:07;;;;;;;10.07;2.47;;;;;;;;;;5036822;28;20278;-60
2020/12/23 03:48:32;;;;;;;9.30;2.90;;;;;;;;;;5035945;28;20553;-60
2020/12/23 03:50:58;;;;;;;5.93;2.67;;;;;;;;;;5035968;28;20214;-60
2020/12/23 03:53:23;;;;;;;9.13;2.40;;;;;;;;;;5036391;28;20367;-60
2020/12/23 03:55:49;;;;;;;6.60;3.50;;;;;;;;;;5035393;28;20218;-60
2020/12/23 03:58:14;;;;;;;7.73;2.23;;;;;;;;;;5036150;28;20206;-60
2020/12/23 04:00:39;;;;;;;7.83;2.90;;;;;;;;;;5035712;28;20531;-60
2020/12/23 04:03:05;;;;;;;4.93;1.83;;;;;;;;;;5036056;28;20665;-61
2020/12/23 04:05:30;;;;;;;3.80;1.93;;;;;;;;;;5035946;28;20227;-60
2020/12/23 04:07:55;;;;;;;7.17;2.97;;;;;;;;;;5035254;28;20672;-60
2020/12/23 04:10:21;;;;;;;8.80;3.03;;;;;;;;;;5035615;28;20214;-60
2020/12/23 04:12:46;;;;;;;5.13;2.67;;;;;;;;;;5035176;28;20337;-60
2020/12/23 04:15:12;;;;;;;7.40;2.30;;;;;;;;;;5035922;28;20216;-60
2020/12/23 04:17:38;;;;;;;11.63;2.27;;;;;;;;;;5035437;28;20298;-60
2020/12/23 04:20:04;;;;;;;8.90;2.97;;;;;;;;;;5035916;28;20216;-60
2020/12/23 04:22:30;;;;;;;9.33;3.50;;;;;;;;;;5036227;28;20459;-60
2020/12/23 04:24:59;;;;;;;14.27;3.10;;;;;;;;;;5035351;28;20442;-60
2020/12/23 04:27:24;;;;;;;7.00;3.30;;;;;;;;;;5036053;28;20221;-60
2020/12/23 04:29:49;;;;;;;8.40;3.67;;;;;;;;;;5035222;28;20755;-60
2020/12/23 04:32:15;;;;;;;9.40;2.43;;;;;;;;;;5036204;28;20219;-60
2020/12/23 04:34:40;;;;;;;8.23;2.80;;;;;;;;;;5035718;28;20221;-61
2020/12/23 04:37:05;;;;;;;14.60;2.23;;;;;;;;;;5035647;28;20214;-60
2020/12/23 04:39:30;;;;;;;6.30;2.33;;;;;;;;;;5035728;28;20245;-60
2020/12/23 04:41:56;;;;;;;8.67;2.90;;;;;;;;;;5034985;28;20228;-60
2020/12/23 04:44:22;;;;;;;8.97;2.17;;;;;;;;;;5035393;28;20226;-60
2020/12/23 04:46:48;;;;;;;4.60;1.67;;;;;;;;;;5034524;28;20221;-60
2020/12/23 04:49:15;;;;;;;9.53;2.20;;;;;;;;;;5035611;28;20531;-60
2020/12/23 04:51:40;;;;;;;7.53;2.30;;;;;;;;;;5034503;28;20832;-60
2020/12/23 04:54:06;;;;;;;9.10;2.37;;;;;;;;;;5035227;28;20513;-60
2020/12/23 04:56:33;;;;;;;3.20;2.20;;;;;;;;;;5035054;28;20244;-60
2020/12/23 04:59:00;;;;;;;10.00;2.53;;;;;;;;;;5035038;28;20422;-60
2020/12/23 05:01:26;;;;;;;10.30;2.50;;;;;;;;;;5035156;28;20491;-60
2020/12/23 05:03:52;;;;;;;12.80;2.43;;;;;;;;;;5034681;28;20475;-60
2020/12/23 05:06:17;;;;;;;6.90;2.63;;;;;;;;;;5034230;28;20516;-60
2020/12/23 05:08:43;;;;;;;5.40;2.67;;;;;;;;;;5034949;28;20445;-60
2020/12/23 05:11:09;;;;;;;4.03;2.30;;;;;;;;;;5035422;28;20551;-60
2020/12/23 05:13:35;;;;;;;7.63;1.90;;;;;;;;;;5035268;28;20541;-60
2020/12/23 05:16:03;;;;;;;5.40;2.90;;;;;;;;;;5017255;28;20471;-60
2020/12/23 05:18:31;;;;;;;7.67;2.73;;;;;;;;;;5035387;28;20519;-60
2020/12/23 05:20:56;;;;;;;9.97;3.27;;;;;;;;;;5034431;28;20442;-60
2020/12/23 05:23:22;;;;;;;8.47;2.20;;;;;;;;;;5035180;28;20456;-60
2020/12/23 05:25:48;;;;;;;7.50;2.63;;;;;;;;;;5033326;28;20216;-60
2020/12/23 05:28:13;;;;;;;7.47;2.37;;;;;;;;;;5034929;28;20535;-60
2020/12/23 05:30:38;;;;;;;7.50;2.50;;;;;;;;;;5035041;28;20229;-60
2020/12/23 05:33:04;;;;;;;13.53;3.20;;;;;;;;;;5034906;28;20590;-60
2020/12/23 05:35:29;;;;;;;7.40;2.60;;;;;;;;;;5033823;28;20227;-60
2020/12/23 05:37:56;;;;;;;7.47;2.20;;;;;;;;;;5034425;28;20226;-60
2020/12/23 05:40:21;;;;;;;9.10;2.40;;;;;;;;;;5033893;28;20228;-60
2020/12/23 05:42:47;;;;;;;7.60;2.87;;;;;;;;;;5037262;28;20467;-61
2020/12/23 05:45:12;;;;;;;4.20;2.00;;;;;;;;;;5038421;28;20247;-60
2020/12/23 05:47:37;;;;;;;9.80;3.63;;;;;;;;;;5037648;28;20252;-60
2020/12/23 05:50:07;;;;;;;8.07;2.73;;;;;;;;;;5037825;28;20213;-61
2020/12/23 05:52:33;;;;;;;9.60;3.03;;;;;;;;;;5038605;28;20232;-60
2020/12/23 05:54:58;;;;;;;6.20;3.77;;;;;;;;;;5038159;28;20830;-60
2020/12/23 05:57:23;;;;;;;9.37;2.33;;;;;;;;;;5038333;28;20222;-60
2020/12/23 05:59:48;;;;;;;4.70;2.17;;;;;;;;;;5038159;28;20304;-60
2020/12/23 06:02:14;;;;;;;7.37;2.87;;;;;;;;;;5038446;28;20225;-60
2020/12/23 06:04:43;;;;;;;8.97;3.00;;;;;;;;;;5036724;28;20668;-60
2020/12/23 06:07:08;;;;;;;4.80;2.27;;;;;;;;;;5037990;28;20245;-60
2020/12/23 06:09:48;;;;;;;6.20;2.17;;;;;;;;;;5038382;28;20447;-60
2020/12/23 06:12:21;;;;;;;4.70;2.40;;;;;;;;;;5037788;28;20214;-60
2020/12/23 06:14:54;;;;;;;9.30;2.50;;;;;;;;;;5038152;28;20756;-60
2020/12/23 06:17:21;;;;;;;12.00;2.60;;;;;;;;;;5037696;28;20899;-60
2020/12/23 06:19:53;;;;;;;7.37;2.70;;;;;;;;;;5037960;28;20465;-60
2020/12/23 06:22:18;;;;;;;5.70;2.03;;;;;;;;;;5037276;28;20452;-60
2020/12/23 06:24:44;;;;;;;7.30;2.37;;;;;;;;;;5038006;28;20846;-60
2020/12/23 06:27:10;;;;;;;7.80;2.50;;;;;;;;;;5037410;28;20218;-64
2020/12/23 06:29:38;;;;;;;5.67;1.93;;;;;;;;;;5038149;28;20803;-59
2020/12/23 06:32:05;;;;;;;9.57;2.70;;;;;;;;;;5037074;28;20585;-59
2020/12/23 06:34:33;;;;;;;5.30;3.07;;;;;;;;;;5037532;28;20457;-59
2020/12/23 06:36:58;;;;;;;7.30;3.60;;;;;;;;;;5036104;28;20435;-60
2020/12/23 06:39:31;;;;;;;9.50;2.47;;;;;;;;;;5037382;28;20602;-60
2020/12/23 06:42:17;;;;;;;8.80;3.13;;;;;;;;;;5037022;28;20669;-61
2020/12/23 06:44:42;;;;;;;12.03;2.90;;;;;;;;;;5037990;28;20462;-60
2020/12/23 06:47:21;;;;;;;9.35;3.60;;;;;;;;;;5037165;28;20931;-60
2020/12/23 06:49:54;;;;;;;12.37;3.63;;;;;;;;;;5037501;28;20735;-60
2020/12/23 06:52:22;;;;;;;25.87;10.40;;;;;;;;;;5035744;28;20517;-59
2020/12/23 06:54:51;;;;;;;14.43;7.83;;;;;;;;;;5036749;28;20428;-59
2020/12/23 06:57:37;;;;;;;13.73;6.10;;;;;;;;;;5036747;28;20430;-60
2020/12/23 07:00:03;;;;;;;5.73;3.10;;;;;;;;;;5036626;28;20453;-60
2020/12/23 07:02:28;;;;;;;9.07;4.05;;;;;;;;;;5037243;28;20451;-60
2020/12/23 07:04:56;;;;;;;11.03;4.13;;;;;;;;;;5037101;28;20332;-60
2020/12/23 07:07:36;;;;;;;9.10;3.20;;;;;;;;;;5036587;28;20296;-60
2020/12/23 07:10:25;;;;;;;10.77;3.50;;;;;;;;;;5036438;28;20439;-60
2020/12/23 07:13:01;;;;;;;7.37;2.97;;;;;;;;;;5036480;28;20456;-60
2020/12/23 07:15:31;;;;;;;9.67;2.93;;;;;;;;;;5036649;28;20916;-60
2020/12/23 07:18:00;;;;;;;5.90;2.70;;;;;;;;;;5036571;28;20464;-60
2020/12/23 07:20:26;;;;;;;8.87;3.13;;;;;;;;;;5036264;28;20762;-60
2020/12/23 07:22:52;;;;;;;12.27;4.20;;;;;;;;;;5036778;28;20464;-60
2020/12/23 07:25:25;;;;;;;8.90;3.67;;;;;;;;;;5036375;28;20237;-60
2020/12/23 07:27:57;;;;;;;5.83;2.70;;;;;;;;;;5036922;28;20468;-60
2020/12/23 07:30:23;;;;;;;10.10;3.23;;;;;;;;;;5036055;28;20552;-60
2020/12/23 07:33:04;;;;;;;10.90;3.00;;;;;;;;;;5036686;28;20480;-60
2020/12/23 07:35:29;;;;;;;5.63;3.33;;;;;;;;;;5035944;28;20221;-60
2020/12/23 07:37:59;;;;;;;8.17;4.07;;;;;;;;;;5036450;28;20499;-61
2020/12/23 07:40:25;;;;;;;8.97;2.73;;;;;;;;;;5036258;28;20312;-60
2020/12/23 07:42:50;;;;;;;7.63;4.00;;;;;;;;;;5036515;28;20929;-60
2020/12/23 07:45:17;;;;;;;12.20;3.43;;;;;;;;;;5036078;28;20503;-60
2020/12/23 07:48:05;;;;;;;8.33;3.00;;;;;;;;;;5036268;28;20253;-60
2020/12/23 07:50:33;;;;;;;8.93;3.27;;;;;;;;;;5036214;28;20897;-61
2020/12/23 07:52:58;;;;;;;8.53;3.63;;;;;;;;;;5036408;28;20461;-61
2020/12/23 07:55:24;;;;;;;11.77;3.57;;;;;;;;;;5034628;28;20527;-61
2020/12/23 07:57:51;;;;;;;13.67;4.13;;;;;;;;;;5035182;28;20225;-60
2020/12/23 08:00:17;;;;;;;13.33;5.30;;;;;;;;;;5035694;28;20476;-60
2020/12/23 08:02:43;;;;;;;8.43;3.93;;;;;;;;;;5036198;28;20440;-60
2020/12/23 08:05:09;;;;;;;11.20;3.87;;;;;;;;;;5034739;28;20551;-60
2020/12/23 08:07:38;;;;;;;9.83;3.70;;;;;;;;;;5035469;28;20224;-60
2020/12/23 08:10:09;;;;;;;8.10;3.90;;;;;;;;;;5035845;28;20569;-60
2020/12/23 08:12:34;;;;;;;13.87;4.30;;;;;;;;;;5035607;28;20424;-60
2020/12/23 08:15:00;;;;;;;10.80;3.57;;;;;;;;;;5034720;28;20947;-60
2020/12/23 08:17:25;;;;;;;8.87;4.10;;;;;;;;;;5035031;28;20253;-60
2020/12/23 08:20:11;;;;;;;10.17;3.83;;;;;;;;;;5035839;28;20273;-60
2020/12/23 08:22:39;;;;;;;9.70;4.27;;;;;;;;;;5035114;28;20217;-60
2020/12/23 08:25:07;;;;;;;10.13;4.80;;;;;;;;;;5035173;28;20468;-60
2020/12/23 08:27:33;;;;;;;11.10;3.73;;;;;;;;;;5034656;28;20453;-60
2020/12/23 08:30:07;;;;;;;9.53;4.07;;;;;;;;;;5035633;28;20470;-60
2020/12/23 08:32:38;;;;;;;11.30;4.80;;;;;;;;;;5034060;28;20491;-60
2020/12/23 08:35:04;;;;;;;6.60;3.63;;;;;;;;;;5014627;28;20458;-60
2020/12/23 08:37:30;;;;;;;7.83;4.87;;;;;;;;;;5024292;28;20972;-60
2020/12/23 08:39:58;;;;;;;11.47;4.60;;;;;;;;;;5035155;28;20489;-60
2020/12/23 08:42:24;;;;;;;9.10;4.73;;;;;;;;;;5034823;28;20224;-60
2020/12/23 08:44:52;;;;;;;9.10;4.07;;;;;;;;;;5034936;28;20987;-60
2020/12/23 08:47:33;;;;;;;11.37;4.47;;;;;;;;;;5035228;28;20439;-60
2020/12/23 08:50:00;;;;;;;12.53;4.83;;;;;;;;;;5035047;28;20460;-60
2020/12/23 08:52:27;;;;;;;11.80;4.50;;;;;;;;;;5033813;28;20972;-60
2020/12/23 08:54:53;;;;;;;22.37;16.30;;;;;;;;;;5035037;28;20431;-60
2020/12/23 08:57:24;;;;;;;12.23;5.77;;;;;;;;;;5034590;28;20548;-60
2020/12/23 08:59:50;;;;;;;13.60;7.00;;;;;;;;;;5035015;28;20685;-60
2020/12/23 09:02:16;;;;;;;19.13;9.67;;;;;;;;;;5034598;28;20447;-61
2020/12/23 09:04:42;;;;;;;11.77;6.80;;;;;;;;;;5034915;28;20646;-61
2020/12/23 09:07:07;;;;;;;12.20;4.83;;;;;;;;;;5034946;28;20496;-61
2020/12/23 09:09:33;;;;;;;14.53;11.00;;;;;;;;;;5035044;28;20228;-61
2020/12/23 09:11:58;;;;;;;19.60;13.20;;;;;;;;;;5035071;28;20225;-61
2020/12/23 09:14:29;;;;;;;17.93;8.03;;;;;;;;;;5034765;28;20457;-61
2020/12/23 09:17:14;;;;;;;17.43;11.33;;;;;;;;;;5033544;28;20673;-61
2020/12/23 09:19:39;;;;;;;14.20;8.00;;;;;;;;;;5034756;28;20449;-61
2020/12/23 09:22:04;;;;;;;14.70;7.45;;;;;;;;;;5034659;28;20942;-61
2020/12/23 09:24:30;;;;;;;10.43;5.13;;;;;;;;;;5034587;28;20227;-60
2020/12/23 09:26:55;;;;;;;12.90;4.37;;;;;;;;;;5034931;28;20304;-61
2020/12/23 09:29:20;;;;;;;12.50;4.63;;;;;;;;;;5034207;28;20223;-61
2020/12/23 09:31:50;;;;;;;15.93;5.23;;;;;;;;;;5034395;28;20221;-61
2020/12/23 09:34:25;;;;;;;8.60;5.33;;;;;;;;;;5034815;28;20244;-61
2020/12/23 09:36:56;;;;;;;9.77;5.80;;;;;;;;;;5033530;28;20448;-61
2020/12/23 09:39:21;;;;;;;15.83;5.57;;;;;;;;;;5034575;28;20456;-61
2020/12/23 09:41:58;;;;;;;13.53;5.90;;;;;;;;;;5034390;28;20776;-60
2020/12/23 09:44:24;;;;;;;9.17;4.50;;;;;;;;;;5034628;28;20222;-60
2020/12/23 09:46:49;;;;;;;6.73;3.80;;;;;;;;;;5033939;28;20594;-60
2020/12/23 09:49:15;;;;;;;13.70;5.47;;;;;;;;;;5034497;28;20216;-60
2020/12/23 09:51:47;;;;;;;11.67;7.40;;;;;;;;;;5034125;28;20245;-60
2020/12/23 09:54:12;;;;;;;9.90;6.20;;;;;;;;;;5034422;28;20774;-60
2020/12/23 09:56:37;;;;;;;11.87;4.40;;;;;;;;;;5034125;28;20546;-60
2020/12/23 09:59:02;;;;;;;10.47;5.77;;;;;;;;;;5034181;28;20213;-61
2020/12/23 10:01:28;;;;;;;9.10;3.80;;;;;;;;;;5033844;28;20947;-61
2020/12/23 10:03:53;;;;;;;8.70;4.23;;;;;;;;;;5034072;28;20215;-60
2020/12/23 10:06:18;;;;;;;14.83;7.47;;;;;;;;;;5034407;28;20340;-60
2020/12/23 10:08:43;;;;;;;7.80;4.60;;;;;;;;;;5033912;28;20289;-61
2020/12/23 10:11:09;;;;;;;10.23;4.57;;;;;;;;;;5034586;28;20313;-60
2020/12/23 10:13:34;;;;;;;11.20;5.33;;;;;;;;;;5033897;28;20222;-60
2020/12/23 10:15:59;;;;;;;8.30;4.93;;;;;;;;;;5034086;28;20313;-61
2020/12/23 10:18:24;;;;;;;8.70;3.60;;;;;;;;;;5034007;28;20237;-60
2020/12/23 10:20:50;;;;;;;7.47;4.37;;;;;;;;;;5033803;28;20593;-61
2020/12/23 10:23:15;;;;;;;9.23;4.17;;;;;;;;;;5034280;28;20224;-62
2020/12/23 10:25:41;;;;;;;11.07;4.47;;;;;;;;;;5025557;28;20218;-62
2020/12/23 10:28:09;;;;;;;9.57;3.70;;;;;;;;;;5034511;28;20525;-61
2020/12/23 10:30:34;;;;;;;7.90;3.87;;;;;;;;;;5037455;28;20259;-61
2020/12/23 10:33:02;;;;;;;8.00;3.83;;;;;;;;;;5037518;28;20423;-62
2020/12/23 10:35:27;;;;;;;6.10;3.50;;;;;;;;;;5037602;28;20218;-61
2020/12/23 10:37:53;;;;;;;17.83;4.60;;;;;;;;;;5036930;28;20608;-61
2020/12/23 10:40:18;;;;;;;10.50;3.90;;;;;;;;;;5037519;28;20226;-61
2020/12/23 10:42:43;;;;;;;9.50;4.00;;;;;;;;;;5037068;28;20668;-61
2020/12/23 10:45:08;;;;;;;7.97;4.73;;;;;;;;;;5037614;28;20233;-61
2020/12/23 10:47:34;;;;;;;8.50;4.40;;;;;;;;;;5037050;28;20363;-61
2020/12/23 10:50:00;;;;;;;9.90;4.00;;;;;;;;;;5037055;28;20213;-61
2020/12/23 10:52:27;;;;;;;8.43;5.20;;;;;;;;;;5037128;28;20222;-61
2020/12/23 10:54:53;;;;;;;8.53;3.90;;;;;;;;;;5036867;28;20218;-61
2020/12/23 10:57:18;;;;;;;14.00;8.50;;;;;;;;;;5037188;28;20436;-61
2020/12/23 10:59:43;;;;;;;11.60;3.80;;;;;;;;;;5036996;28;20491;-61
2020/12/23 11:02:08;;;;;;;14.90;7.57;;;;;;;;;;5037457;28;20309;-61
2020/12/23 11:04:34;;;;;;;8.00;4.47;;;;;;;;;;5036910;28;20642;-60
2020/12/23 11:06:59;;;;;;;9.27;5.67;;;;;;;;;;5037116;28;20300;-61
2020/12/23 11:09:24;;;;;;;14.33;5.23;;;;;;;;;;5036926;28;20226;-61
2020/12/23 11:11:53;;;;;;;14.23;5.67;;;;;;;;;;5036842;28;20582;-61
2020/12/23 11:14:19;;;;;;;9.53;4.60;;;;;;;;;;5037187;28;20251;-61
2020/12/23 11:16:48;;;;;;;15.17;5.43;;;;;;;;;;5036126;28;20575;-61
2020/12/23 11:19:14;;;;;;;7.03;5.13;;;;;;;;;;5037041;28;20244;-61
2020/12/23 11:21:39;;;;;;;11.07;8.00;;;;;;;;;;5036672;28;20538;-60
2020/12/23 11:24:04;;;;;;;12.73;6.30;;;;;;;;;;5036904;28;20460;-60
2020/12/23 11:26:29;;;;;;;15.53;11.80;;;;;;;;;;5036787;28;20284;-60
2020/12/23 11:28:55;;;;;;;16.53;12.50;;;;;;;;;;5036527;28;20224;-60
2020/12/23 11:31:20;;;;;;;14.63;6.10;;;;;;;;;;5036536;28;20233;-61
2020/12/23 11:33:46;;;;;;;11.57;4.43;;;;;;;;;;5036028;28;20221;-61
2020/12/23 11:36:13;;;;;;;16.20;5.90;;;;;;;;;;5036617;28;20228;-60
2020/12/23 11:38:38;;;;;;;8.57;5.00;;;;;;;;;;5035912;28;20289;-61
2020/12/23 11:41:05;;;;;;;8.13;5.67;;;;;;;;;;5036096;28;20540;-60
2020/12/23 11:43:30;;;;;;;9.73;4.43;;;;;;;;;;5036185;28;20229;-62
2020/12/23 11:45:56;;;;;;;16.63;5.10;;;;;;;;;;5035895;28;20456;-61
2020/12/23 11:48:21;;;;;;;8.40;4.63;;;;;;;;;;5036371;28;20228;-60
2020/12/23 11:50:47;;;;;;;9.10;4.20;;;;;;;;;;5035574;28;20560;-61
2020/12/23 11:53:12;;;;;;;13.40;4.00;;;;;;;;;;5036460;28;20299;-61
2020/12/23 11:55:37;;;;;;;9.27;5.10;;;;;;;;;;5035858;28;20234;-61
2020/12/23 11:58:03;;;;;;;12.33;5.50;;;;;;;;;;5035941;28;20229;-61
2020/12/23 12:00:28;;;;;;;13.53;5.03;;;;;;;;;;5035753;28;20579;-61
2020/12/23 12:02:54;;;;;;;10.27;4.57;;;;;;;;;;5035418;28;20599;-60
2020/12/23 12:05:19;;;;;;;8.40;3.43;;;;;;;;;;5035859;28;20222;-60
2020/12/23 12:07:44;;;;;;;10.67;4.77;;;;;;;;;;5035293;28;20377;-60
2020/12/23 12:10:10;;;;;;;17.73;5.47;;;;;;;;;;5035823;28;20222;-60
2020/12/23 12:12:36;;;;;;;10.53;4.70;;;;;;;;;;5035560;28;20792;-60
2020/12/23 12:15:03;;;;;;;8.07;4.80;;;;;;;;;;5034484;28;20235;-60
2020/12/23 12:17:28;;;;;;;11.23;4.47;;;;;;;;;;5035398;28;20476;-60
2020/12/23 12:19:54;;;;;;;8.93;4.23;;;;;;;;;;5035025;28;20463;-61
2020/12/23 12:22:19;;;;;;;11.67;4.77;;;;;;;;;;5034350;28;20300;-61
2020/12/23 12:24:44;;;;;;;15.10;5.00;;;;;;;;;;5035622;28;20530;-60
2020/12/23 12:27:10;;;;;;;9.43;4.93;;;;;;;;;;5035327;28;20213;-60
2020/12/23 12:29:36;;;;;;;11.70;5.73;;;;;;;;;;5035230;28;20583;-60
2020/12/23 12:32:01;;;;;;;8.13;3.80;;;;;;;;;;5034558;28;20225;-60
2020/12/23 12:34:29;;;;;;;10.57;5.87;;;;;;;;;;5035217;28;20791;-60
2020/12/23 12:36:55;;;;;;;6.60;4.00;;;;;;;;;;5015054;28;20316;-60
2020/12/23 12:39:20;;;;;;;15.67;4.70;;;;;;;;;;5015361;28;20451;-60
2020/12/23 12:41:45;;;;;;;11.53;5.07;;;;;;;;;;5014860;28;20230;-60
2020/12/23 12:44:11;;;;;;;8.83;4.83;;;;;;;;;;5015368;28;20229;-60
2020/12/23 12:46:36;;;;;;;7.37;4.07;;;;;;;;;;5015339;28;20297;-60
2020/12/23 12:49:01;;;;;;;8.80;5.00;;;;;;;;;;5014894;28;20220;-60
2020/12/23 12:51:27;;;;;;;9.97;4.37;;;;;;;;;;5033577;28;20251;-60
2020/12/23 12:53:53;;;;;;;8.47;4.83;;;;;;;;;;5034616;28;20225;-61
2020/12/23 12:56:36;;;;;;;7.77;4.10;;;;;;;;;;5034752;28;20235;-60
2020/12/23 12:59:02;;;;;;;8.13;4.90;;;;;;;;;;5034301;28;21050;-60
2020/12/23 13:01:37;;;;;;;7.20;4.90;;;;;;;;;;5034799;28;20467;-61
2020/12/23 13:04:03;;;;;;;11.30;5.10;;;;;;;;;;5034832;28;20241;-60
2020/12/23 13:06:28;;;;;;;7.47;4.60;;;;;;;;;;5034817;28;20460;-61
2020/12/23 13:08:54;;;;;;;8.03;4.70;;;;;;;;;;5034665;28;20464;-60
2020/12/23 13:11:26;;;;;;;8.70;5.00;;;;;;;;;;5034909;28;20225;-60
2020/12/23 13:13:52;;;;;;;10.53;5.40;;;;;;;;;;5034438;28;20271;-60
2020/12/23 13:16:18;;;;;;;10.80;6.30;;;;;;;;;;5034495;28;20530;-61
2020/12/23 13:18:43;;;;;;;10.17;6.00;;;;;;;;;;5034690;28;20435;-60
2020/12/23 13:21:13;;;;;;;10.00;6.13;;;;;;;;;;5034530;28;20224;-60
2020/12/23 13:23:38;;;;;;;14.03;6.27;;;;;;;;;;5034682;28;20283;-60
2020/12/23 13:26:04;;;;;;;12.73;5.77;;;;;;;;;;5034434;28;20431;-60
2020/12/23 13:28:29;;;;;;;14.30;6.23;;;;;;;;;;5035001;28;20222;-60
2020/12/23 13:30:55;;;;;;;8.80;5.23;;;;;;;;;;5033899;28;20407;-60
2020/12/23 13:33:21;;;;;;;11.53;5.47;;;;;;;;;;5034648;28;20316;-60
2020/12/23 13:35:50;;;;;;;9.47;6.43;;;;;;;;;;5034360;28;20873;-60
2020/12/23 13:38:16;;;;;;;11.47;6.97;;;;;;;;;;5034533;28;20742;-60
2020/12/23 13:40:41;;;;;;;12.87;7.80;;;;;;;;;;5034114;28;20508;-60
2020/12/23 13:43:07;;;;;;;16.53;5.87;;;;;;;;;;5034460;28;20459;-60
2020/12/23 13:45:32;;;;;;;12.77;6.60;;;;;;;;;;5034580;28;20223;-61
2020/12/23 13:47:58;;;;;;;10.10;6.03;;;;;;;;;;5034371;28;20230;-60
2020/12/23 13:50:23;;;;;;;18.00;6.57;;;;;;;;;;5034858;28;20656;-60
2020/12/23 13:52:48;;;;;;;12.30;6.87;;;;;;;;;;5034355;28;20303;-60
2020/12/23 13:55:13;;;;;;;10.93;6.17;;;;;;;;;;5034829;28;20230;-60
2020/12/23 13:57:39;;;;;;;11.07;4.90;;;;;;;;;;5034549;28;20333;-61
2020/12/23 14:00:05;;;;;;;8.23;5.20;;;;;;;;;;5034603;28;20229;-59
2020/12/23 14:02:30;;;;;;;12.13;7.23;;;;;;;;;;5035636;28;20232;-60
2020/12/23 14:04:56;;;;;;;13.83;5.57;;;;;;;;;;5038295;28;20943;-60
2020/12/23 14:07:21;;;;;;;9.03;5.60;;;;;;;;;;5038699;28;20308;-60
2020/12/23 14:09:46;;;;;;;10.20;5.77;;;;;;;;;;5037887;28;20233;-60
2020/12/23 14:12:11;;;;;;;9.80;4.87;;;;;;;;;;5038142;28;20376;-60
2020/12/23 14:14:37;;;;;;;9.90;5.03;;;;;;;;;;5038545;28;20224;-61
2020/12/23 14:17:02;;;;;;;11.13;5.10;;;;;;;;;;5037403;28;20359;-61
2020/12/23 14:19:28;;;;;;;17.67;5.00;;;;;;;;;;5037890;28;20232;-60
2020/12/23 14:21:54;;;;;;;9.77;6.43;;;;;;;;;;5037438;28;20327;-61
2020/12/23 14:24:20;;;;;;;8.30;5.70;;;;;;;;;;5038240;28;20316;-61
2020/12/23 14:26:45;;;;;;;12.40;5.23;;;;;;;;;;5037930;28;20708;-61
2020/12/23 14:29:10;;;;;;;9.80;5.17;;;;;;;;;;5037944;28;20467;-61
2020/12/23 14:31:42;;;;;;;10.30;4.87;;;;;;;;;;5037632;28;20310;-61
2020/12/23 14:34:08;;;;;;;13.63;4.87;;;;;;;;;;5037579;28;20223;-61